Time;durP1;ratioP1;P1;durP2;ratioP2;P2;SDS_P1;SDS_P2;PMS_P1;PMS_P2;Temp;Humidity;BMP_temperature;BMP_pressure;BME280_temperature;BME280_humidity;BME280_pressure;Samples;Min_cycle;Max_cycle;Signal;HPM_P1;HPM_P2
2023/06/27 00:01:00;;;;;;;;;0.00;0.00;;;;;20.52;39.54;102024.69;5064444;27;46952;-57
2023/06/27 00:03:25;;;;;;;;;0.00;0.00;;;;;20.46;40.13;102028.72;5066604;27;45649;-57
2023/06/27 00:05:51;;;;;;;;;0.00;0.00;;;;;20.41;40.04;102030.91;5066193;27;59631;-57
2023/06/27 00:08:17;;;;;;;;;0.00;0.00;;;;;20.36;39.87;102035.78;5063007;28;45249;-56
2023/06/27 00:10:42;;;;;;;;;0.00;0.00;;;;;20.31;39.30;102028.88;5067317;28;69751;-56
2023/06/27 00:13:15;;;;;;;;;0.00;0.00;;;;;20.27;40.53;102034.59;5067607;27;61859;-55
2023/06/27 00:15:41;;;;;;;;;0.00;0.00;;;;;20.23;40.44;102027.69;5075168;27;45322;-55
2023/06/27 00:18:07;;;;;;;;;0.00;0.00;;;;;20.20;40.23;102036.03;5061022;27;45429;-55
2023/06/27 00:20:34;;;;;;;;;0.00;0.00;;;;;20.18;40.28;102033.44;5059844;28;45514;-55
2023/06/27 00:23:18;;;;;;;;;0.00;0.00;;;;;20.15;40.43;102034.50;5077931;28;45386;-55
2023/06/27 00:25:44;;;;;;;;;0.00;0.00;;;;;20.12;40.13;102032.00;5063621;28;45479;-56
2023/06/27 00:28:10;;;;;;;;;0.00;0.00;;;;;20.12;40.46;102033.88;5064790;28;45600;-55
2023/06/27 00:30:35;;;;;;;;;0.00;0.00;;;;;20.09;41.11;102036.75;5061068;28;59298;-53
2023/06/27 00:33:01;;;;;;;;;0.00;0.00;;;;;20.07;40.12;102036.03;5074148;27;67637;-53
2023/06/27 00:35:26;;;;;;;;;0.00;0.00;;;;;19.98;41.55;102032.97;5069114;27;45819;-57
2023/06/27 00:37:52;;;;;;;;;0.00;0.00;;;;;19.93;41.43;102029.78;5069708;27;45389;-55
2023/06/27 00:40:18;;;;;;;;;0.00;0.00;;;;;19.89;40.86;102022.84;5065448;27;45666;-55
2023/06/27 00:42:43;;;;;;;;;0.00;0.00;;;;;19.85;41.41;102021.34;5075831;27;69383;-57
2023/06/27 00:45:09;;;;;;;;;0.00;0.00;;;;;19.84;41.23;102030.41;5073019;27;58458;-56
2023/06/27 00:47:34;;;;;;;;;0.00;0.00;;;;;19.83;41.28;102032.25;5074939;27;45574;-54
2023/06/27 00:49:59;;;;;;;;;0.00;0.00;;;;;19.82;41.64;102041.31;5075356;27;72203;-54
2023/06/27 00:52:25;;;;;;;;;0.00;0.00;;;;;19.81;41.80;102044.09;5066032;27;46292;-55
2023/06/27 00:54:52;;;;;;;;;0.00;0.00;;;;;19.79;42.06;102043.31;5074465;28;45417;-54
2023/06/27 00:57:17;;;;;;;;;0.00;0.00;;;;;19.77;42.07;102035.31;5075284;27;45382;-53
2023/06/27 00:59:43;;;;;;;;;0.00;0.00;;;;;19.76;42.24;102032.75;5080272;27;49675;-54
2023/06/27 01:02:09;;;;;;;;;0.00;0.00;;;;;19.73;41.97;102035.66;5079493;27;47151;-55
2023/06/27 01:04:34;;;;;;;;;0.00;0.00;;;;;19.75;41.96;102039.09;5076970;27;45672;-53
2023/06/27 01:07:04;;;;;;;;;0.00;0.00;;;;;19.72;42.68;102033.94;5079991;27;45609;-54
2023/06/27 01:09:34;;;;;;;;;0.00;0.00;;;;;19.68;42.82;102027.88;5079394;27;45975;-54
2023/06/27 01:12:16;;;;;;;;;0.00;0.00;;;;;19.67;42.51;102032.41;5087075;27;45656;-54
2023/06/27 01:14:44;;;;;;;;;0.00;0.00;;;;;19.65;42.46;102034.34;5063640;27;45395;-54
2023/06/27 01:17:10;;;;;;;;;0.00;0.00;;;;;19.62;42.99;102031.00;5076555;28;45650;-54
2023/06/27 01:19:36;;;;;;;;;0.00;0.00;;;;;19.62;42.96;102031.00;5066969;28;46272;-54
2023/06/27 01:22:05;;;;;;;;;0.00;0.00;;;;;19.60;42.53;102031.09;5075819;27;64644;-57
2023/06/27 01:24:32;;;;;;;;;0.00;0.00;;;;;19.59;42.93;102031.22;5077615;27;45467;-55
2023/06/27 01:26:57;;;;;;;;;0.00;0.00;;;;;19.57;43.12;102031.31;5074367;27;52049;-54
2023/06/27 01:29:22;;;;;;;;;0.00;0.00;;;;;19.56;42.94;102023.34;5079239;27;45453;-54
2023/06/27 01:32:09;;;;;;;;;0.00;0.00;;;;;19.54;42.69;102015.31;5077583;28;65033;-54
2023/06/27 01:34:48;;;;;;;;;0.00;0.00;;;;;19.53;43.60;102015.44;5073465;28;45524;-54
2023/06/27 01:37:21;;;;;;;;;0.00;0.00;;;;;19.50;43.44;102013.81;5073744;28;45520;-55
2023/06/27 01:40:07;;;;;;;;;0.00;0.00;;;;;19.48;43.29;102013.94;5078991;27;45797;-54
2023/06/27 01:42:43;;;;;;;;;0.00;0.00;;;;;19.45;43.69;102015.97;5072846;28;45844;-54
2023/06/27 01:45:10;;;;;;;;;0.00;0.00;;;;;19.43;43.99;102016.06;5087069;27;45531;-54
2023/06/27 01:47:40;;;;;;;;;0.00;0.00;;;;;19.41;43.78;102019.84;5078463;28;45529;-55
2023/06/27 01:50:06;;;;;;;;;0.00;0.00;;;;;19.39;43.89;102025.34;5073224;27;46178;-55
2023/06/27 01:52:31;;;;;;;;;0.00;0.00;;;;;19.37;44.02;102021.88;5074808;27;45422;-55
2023/06/27 01:54:59;;;;;;;;;0.00;0.00;;;;;19.33;43.67;102018.56;5074578;27;64399;-55
2023/06/27 01:57:24;;;;;;;;;0.00;0.00;;;;;19.30;44.40;102017.88;5076150;27;45578;-55
2023/06/27 01:59:50;;;;;;;;;0.00;0.00;;;;;19.27;44.21;102018.13;5089867;27;71718;-55
2023/06/27 02:02:15;;;;;;;;;0.00;0.00;;;;;19.23;44.12;102021.97;5075001;27;45332;-55
2023/06/27 02:04:40;;;;;;;;;0.00;0.00;;;;;19.19;44.04;102026.72;5065391;27;68524;-54
2023/06/27 02:07:06;;;;;;;;;0.00;0.00;;;;;19.16;44.84;102022.41;5068530;27;45153;-54
2023/06/27 02:09:31;;;;;;;;;0.00;0.00;;;;;19.15;44.60;102027.88;5073778;28;45469;-55
2023/06/27 02:11:56;;;;;;;;;0.00;0.00;;;;;19.12;44.97;102017.28;5073270;27;66440;-55
2023/06/27 02:14:22;;;;;;;;;0.00;0.00;;;;;19.10;45.25;102021.91;5076583;27;55760;-55
2023/06/27 02:16:47;;;;;;;;;0.00;0.00;;;;;19.09;45.19;102025.59;5077651;27;45818;-55
2023/06/27 02:19:12;;;;;;;;;0.00;0.00;;;;;19.08;44.69;102026.56;5075401;27;68245;-55
2023/06/27 02:21:38;;;;;;;;;0.00;0.00;;;;;19.07;45.23;102022.97;5079549;27;45367;-55
2023/06/27 02:24:03;;;;;;;;;0.00;0.00;;;;;19.05;45.21;102024.09;5075360;27;45239;-54
2023/06/27 02:26:29;;;;;;;;;0.00;0.00;;;;;19.04;45.09;102030.44;5080706;27;45378;-54
2023/06/27 02:28:54;;;;;;;;;0.00;0.00;;;;;19.00;44.98;102019.84;5072247;27;71411;-54
2023/06/27 02:31:19;;;;;;;;;0.00;0.00;;;;;18.97;45.88;102022.75;5070957;27;46335;-55
2023/06/27 02:33:45;;;;;;;;;0.00;0.00;;;;;18.95;45.82;102021.13;5075689;27;45332;-54
2023/06/27 02:36:10;;;;;;;;;0.00;0.00;;;;;18.93;46.03;102023.03;5080301;27;45507;-54
2023/06/27 02:38:36;;;;;;;;;0.00;0.00;;;;;18.90;46.04;102023.25;5076504;27;47876;-54
2023/06/27 02:41:01;;;;;;;;;0.00;0.00;;;;;18.87;45.82;102028.81;5074103;27;67539;-55
2023/06/27 02:43:27;;;;;;;;;0.00;0.00;;;;;18.86;45.98;102027.94;5068691;28;50918;-54
2023/06/27 02:45:52;;;;;;;;;0.00;0.00;;;;;18.84;46.07;102030.75;5075836;27;45477;-54
2023/06/27 02:48:18;;;;;;;;;0.00;0.00;;;;;18.84;45.68;102033.44;5072270;27;69999;-54
2023/06/27 02:50:46;;;;;;;;;0.00;0.00;;;;;18.83;46.21;102034.41;5067401;27;45597;-55
2023/06/27 02:53:11;;;;;;;;;0.00;0.00;;;;;18.81;46.32;102033.66;5069391;27;45545;-54
2023/06/27 02:55:37;;;;;;;;;0.00;0.00;;;;;18.79;46.21;102032.03;5076744;28;45623;-54
2023/06/27 02:58:02;;;;;;;;;0.00;0.00;;;;;18.77;45.83;102031.25;5066572;27;47114;-55
2023/06/27 03:00:27;;;;;;;;;0.00;0.00;;;;;18.75;46.98;102036.75;5071590;27;45520;-55
2023/06/27 03:02:53;;;;;;;;;0.00;0.00;;;;;18.74;46.60;102031.47;5069601;28;45575;-55
2023/06/27 03:05:18;;;;;;;;;0.00;0.00;;;;;18.73;46.25;102027.03;5067122;27;60593;-54
2023/06/27 03:07:43;;;;;;;;;0.00;0.00;;;;;18.73;46.55;102024.34;5074023;28;46764;-54
2023/06/27 03:10:09;;;;;;;;;0.00;0.00;;;;;18.74;46.49;102023.38;5076631;27;55670;-56
2023/06/27 03:12:34;;;;;;;;;0.00;0.00;;;;;18.71;46.59;102032.53;5066168;27;45460;-54
2023/06/27 03:15:03;;;;;;;;;0.00;0.00;;;;;18.69;46.75;102029.06;5072353;27;65912;-54
2023/06/27 03:17:29;;;;;;;;;0.00;0.00;;;;;18.68;46.69;102022.81;5077549;27;47068;-54
2023/06/27 03:19:54;;;;;;;;;0.00;0.00;;;;;18.67;47.15;102021.06;5073400;27;45463;-54
2023/06/27 03:22:20;;;;;;;;;0.00;0.00;;;;;18.65;46.75;102019.44;5073451;27;45573;-54
2023/06/27 03:24:45;;;;;;;;;0.00;0.00;;;;;18.63;46.81;102022.25;5075833;27;45588;-54
2023/06/27 03:27:10;;;;;;;;;0.00;0.00;;;;;18.61;46.90;102029.53;5076310;27;46505;-54
2023/06/27 03:29:36;;;;;;;;;0.00;0.00;;;;;18.61;46.61;102023.31;5078332;27;45448;-54
2023/06/27 03:32:01;;;;;;;;;0.00;0.00;;;;;18.58;46.99;102018.97;5075108;27;57080;-55
2023/06/27 03:34:26;;;;;;;;;0.00;0.00;;;;;18.58;47.02;102010.03;5067503;28;45390;-53
2023/06/27 03:36:52;;;;;;;;;0.00;0.00;;;;;18.57;47.15;102008.31;5071006;27;67941;-55
2023/06/27 03:39:17;;;;;;;;;0.00;0.00;;;;;18.57;46.70;102005.63;5073817;27;64600;-53
2023/06/27 03:41:42;;;;;;;;;0.00;0.00;;;;;18.55;46.94;102008.41;5075691;27;45394;-54
2023/06/27 03:44:08;;;;;;;;;0.00;0.00;;;;;18.54;47.38;102008.50;5075230;28;55350;-54
2023/06/27 03:46:34;;;;;;;;;0.00;0.00;;;;;18.52;47.32;102009.47;5063562;27;46114;-60
2023/06/27 03:48:59;;;;;;;;;0.00;0.00;;;;;18.52;47.27;102012.16;5071375;27;45397;-54
2023/06/27 03:51:26;;;;;;;;;0.00;0.00;;;;;18.51;47.28;102015.81;5070218;28;50940;-54
2023/06/27 03:53:51;;;;;;;;;0.00;0.00;;;;;18.49;47.60;102006.97;5074360;27;45476;-55
2023/06/27 03:56:17;;;;;;;;;0.00;0.00;;;;;18.48;47.80;102012.44;5075202;27;45717;-53
2023/06/27 03:58:42;;;;;;;;;0.00;0.00;;;;;18.48;47.49;102005.22;5076123;27;45509;-53
2023/06/27 04:01:07;;;;;;;;;0.00;0.00;;;;;18.48;47.90;102002.53;5074416;27;49933;-54
2023/06/27 04:03:33;;;;;;;;;0.00;0.00;;;;;18.47;47.99;102006.22;5076083;28;45706;-54
2023/06/27 04:05:58;;;;;;;;;0.00;0.00;;;;;18.47;48.10;102008.03;5074951;27;61418;-54
2023/06/27 04:08:23;;;;;;;;;0.00;0.00;;;;;18.46;48.22;102017.94;5075533;27;45418;-53
2023/06/27 04:10:49;;;;;;;;;0.00;0.00;;;;;18.47;48.10;102013.41;5079323;27;46487;-53
2023/06/27 04:13:14;;;;;;;;;0.00;0.00;;;;;18.49;48.36;102015.03;5075877;28;45761;-53
2023/06/27 04:15:39;;;;;;;;;0.00;0.00;;;;;18.51;48.41;102012.25;5077839;27;60511;-54
2023/06/27 04:18:06;;;;;;;;;0.00;0.00;;;;;18.53;48.37;102018.41;5072052;27;71025;-55
2023/06/27 04:20:31;;;;;;;;;0.00;0.00;;;;;18.53;48.70;102010.31;5074801;27;45417;-55
2023/06/27 04:22:56;;;;;;;;;0.00;0.00;;;;;18.53;48.68;102018.41;5088420;27;45545;-53
2023/06/27 04:25:22;;;;;;;;;0.00;0.00;;;;;18.54;48.88;102019.25;5071499;27;68844;-54
2023/06/27 04:27:47;;;;;;;;;0.00;0.00;;;;;18.55;48.77;102021.88;5072744;28;53957;-54
2023/06/27 04:30:13;;;;;;;;;0.00;0.00;;;;;18.57;48.86;102021.78;5070819;28;61292;-53
2023/06/27 04:32:38;;;;;;;;;0.00;0.00;;;;;18.58;49.02;102018.13;5068271;27;45333;-53
2023/06/27 04:35:04;;;;;;;;;0.00;0.00;;;;;18.60;48.70;102021.56;5069081;28;46499;-54
2023/06/27 04:37:29;;;;;;;;;0.00;0.00;;;;;18.64;48.90;102018.59;5071040;28;45366;-54
2023/06/27 04:39:55;;;;;;;;;0.00;0.00;;;;;18.67;48.76;102010.28;5068494;28;45709;-54
2023/06/27 04:42:20;;;;;;;;;0.00;0.00;;;;;18.73;48.84;102008.16;5065845;27;45191;-54
2023/06/27 04:44:45;;;;;;;;;0.00;0.00;;;;;18.79;48.62;102016.72;5072612;28;46590;-54
2023/06/27 04:47:11;;;;;;;;;0.00;0.00;;;;;18.83;48.52;102020.06;5061492;27;45539;-54
2023/06/27 04:49:36;;;;;;;;;0.00;0.00;;;;;18.86;48.56;102009.06;5060670;28;45529;-54
2023/06/27 04:52:02;;;;;;;;;0.00;0.00;;;;;18.90;47.85;102007.94;5090246;27;45341;-54
2023/06/27 04:54:27;;;;;;;;;0.00;0.00;;;;;18.93;48.34;102001.47;5065204;27;47170;-53
2023/06/27 04:56:53;;;;;;;;;0.00;0.00;;;;;18.97;48.86;102003.03;5075724;27;59547;-53
2023/06/27 04:59:19;;;;;;;;;0.00;0.00;;;;;19.00;48.38;102006.34;5065646;27;58894;-53
2023/06/27 05:01:44;;;;;;;;;0.00;0.00;;;;;19.05;48.21;102005.22;5069171;28;45447;-53
2023/06/27 05:04:10;;;;;;;;;0.00;0.00;;;;;19.07;48.02;102004.09;5072763;27;45442;-53
2023/06/27 05:06:35;;;;;;;;;0.00;0.00;;;;;19.09;48.65;102007.59;5073415;28;45228;-54
2023/06/27 05:09:02;;;;;;;;;0.00;0.00;;;;;19.11;48.34;102013.75;5076736;27;45648;-54
2023/06/27 05:11:27;;;;;;;;;0.00;0.00;;;;;19.16;48.30;102011.59;5068101;28;45388;-54
2023/06/27 05:13:53;;;;;;;;;0.00;0.00;;;;;19.23;48.46;102013.88;5067594;27;46873;-54
2023/06/27 05:16:19;;;;;;;;;0.00;0.00;;;;;19.27;48.55;102012.72;5073679;27;45421;-54
2023/06/27 05:18:44;;;;;;;;;0.00;0.00;;;;;19.31;48.38;102015.09;5073512;27;45549;-55
2023/06/27 05:21:10;;;;;;;;;0.00;0.00;;;;;19.36;48.20;102016.59;5069423;27;66343;-54
2023/06/27 05:23:36;;;;;;;;;0.00;0.00;;;;;19.40;48.48;102023.50;5076649;27;45489;-54
2023/06/27 05:26:01;;;;;;;;;0.00;0.00;;;;;19.45;48.68;102016.84;5075172;27;52068;-55
2023/06/27 05:28:26;;;;;;;;;0.00;0.00;;;;;19.48;48.52;102031.97;5093399;27;45323;-54
2023/06/27 05:30:52;;;;;;;;;0.00;0.00;;;;;19.53;47.71;102028.94;5075412;28;45666;-55
2023/06/27 05:33:17;;;;;;;;;0.00;0.00;;;;;19.55;48.52;102022.47;5070122;27;46370;-54
2023/06/27 05:35:43;;;;;;;;;0.00;0.00;;;;;19.59;49.02;102029.38;5067160;28;45248;-54
2023/06/27 05:38:08;;;;;;;;;0.00;0.00;;;;;19.65;48.58;102022.69;5087080;27;45448;-54
2023/06/27 05:40:33;;;;;;;;;0.00;0.00;;;;;19.70;48.62;102019.66;5077479;27;61452;-54
2023/06/27 05:42:59;;;;;;;;;0.00;0.00;;;;;19.77;48.54;102027.22;5078737;27;45601;-55
2023/06/27 05:45:24;;;;;;;;;0.00;0.00;;;;;19.87;48.29;102021.22;5076825;28;45450;-55
2023/06/27 05:47:50;;;;;;;;;0.00;0.00;;;;;20.13;47.88;102014.00;5075715;28;45317;-54
2023/06/27 05:50:15;;;;;;;;;0.00;0.00;;;;;20.49;47.86;102007.75;5080779;27;45351;-54
2023/06/27 05:52:41;;;;;;;;;0.00;0.00;;;;;20.67;47.56;102010.06;5074087;27;46220;-55
2023/06/27 05:55:07;;;;;;;;;0.00;0.00;;;;;20.77;47.53;102010.28;5080199;27;47756;-56
2023/06/27 05:57:32;;;;;;;;;0.00;0.00;;;;;20.85;47.45;102009.72;5079300;27;45334;-55
2023/06/27 05:59:57;;;;;;;;;0.00;0.00;;;;;20.94;47.43;102001.78;5060064;28;71254;-55
2023/06/27 06:02:23;;;;;;;;;0.00;0.00;;;;;21.05;47.09;102011.75;5074873;27;47200;-55
2023/06/27 06:04:48;;;;;;;;;0.00;0.00;;;;;21.15;47.25;102010.09;5080697;27;50128;-55
2023/06/27 06:07:14;;;;;;;;;0.00;0.00;;;;;21.25;46.60;102021.09;5077620;27;50866;-56
2023/06/27 06:09:39;;;;;;;;;0.00;0.00;;;;;21.36;46.95;102014.00;5073495;27;45580;-55
2023/06/27 06:12:05;;;;;;;;;0.00;0.00;;;;;21.41;46.87;102007.25;5067580;27;62689;-56
2023/06/27 06:14:30;;;;;;;;;0.00;0.00;;;;;21.46;46.35;102004.19;5078099;27;45350;-56
2023/06/27 06:16:55;;;;;;;;;0.00;0.00;;;;;21.54;46.29;102009.00;5076372;27;63694;-56
2023/06/27 06:19:21;;;;;;;;;0.00;0.00;;;;;21.64;46.14;102010.91;5077341;27;67376;-56
2023/06/27 06:21:46;;;;;;;;;0.00;0.00;;;;;21.80;46.52;102015.13;5087099;27;45636;-55
2023/06/27 06:24:12;;;;;;;;;0.00;0.00;;;;;21.93;45.85;102013.16;5064873;28;67527;-54
2023/06/27 06:26:38;;;;;;;;;0.00;0.00;;;;;22.08;45.91;102007.50;5080449;27;45429;-55
2023/06/27 06:29:03;;;;;;;;;0.00;0.00;;;;;22.16;45.86;102013.16;5072187;27;45627;-55
2023/06/27 06:31:29;;;;;;;;;0.00;0.00;;;;;22.25;45.39;102014.25;5072600;28;45482;-55
2023/06/27 06:33:56;;;;;;;;;0.00;0.00;;;;;22.36;45.13;102017.00;5071681;27;46274;-56
2023/06/27 06:36:22;;;;;;;;;0.00;0.00;;;;;22.55;45.39;102012.78;5068440;28;45378;-56
2023/06/27 06:38:48;;;;;;;;;0.00;0.00;;;;;23.27;44.72;102014.03;5071737;27;45307;-54
2023/06/27 06:41:13;;;;;;;;;0.00;0.00;;;;;24.53;43.47;102006.72;5076754;27;46428;-54
2023/06/27 06:43:39;;;;;;;;;0.00;0.00;;;;;25.82;41.67;102018.34;5069607;27;45762;-55
2023/06/27 06:46:04;;;;;;;;;0.00;0.00;;;;;27.23;39.51;102018.16;5084093;27;45704;-56
2023/06/27 06:48:30;;;;;;;;;0.00;0.00;;;;;28.51;37.58;102014.84;5075340;28;45311;-56
2023/06/27 06:50:55;;;;;;;;;0.00;0.00;;;;;29.63;36.07;102012.56;5077956;27;46219;-57
2023/06/27 06:53:21;;;;;;;;;0.00;0.00;;;;;30.75;34.23;102008.06;5077979;28;45536;-54
2023/06/27 06:55:46;;;;;;;;;0.00;0.00;;;;;31.81;32.39;102017.34;5077682;27;45778;-54
2023/06/27 06:58:12;;;;;;;;;0.00;0.00;;;;;32.69;31.59;102016.56;5059745;28;45516;-56
2023/06/27 07:00:37;;;;;;;;;0.00;0.00;;;;;33.48;30.47;102018.44;5078294;28;45660;-55
2023/06/27 07:03:11;;;;;;;;;0.00;0.00;;;;;34.22;28.79;102020.78;5078125;27;45456;-55
2023/06/27 07:05:38;;;;;;;;;0.00;0.00;;;;;35.06;27.30;102011.31;5075348;28;45418;-55
2023/06/27 07:08:04;;;;;;;;;0.00;0.00;;;;;35.69;27.00;102023.00;5073760;27;45370;-55
2023/06/27 07:10:30;;;;;;;;;0.00;0.00;;;;;35.93;26.57;102021.47;5080419;27;45511;-56
2023/06/27 07:12:55;;;;;;;;;0.00;0.00;;;;;35.91;26.01;102018.91;5076663;27;45338;-57
2023/06/27 07:15:23;;;;;;;;;0.00;0.00;;;;;35.97;25.57;102028.28;5076516;27;45396;-56
2023/06/27 07:17:50;;;;;;;;;0.00;0.00;;;;;35.85;25.81;102028.09;5078211;27;45354;-57
2023/06/27 07:20:16;;;;;;;;;0.00;0.00;;;;;35.89;26.26;102026.59;5094235;27;46278;-53
2023/06/27 07:22:41;;;;;;;;;0.00;0.00;;;;;36.10;24.89;102030.13;5077750;27;45710;-53
2023/06/27 07:25:07;;;;;;;;;0.00;0.00;;;;;36.61;25.36;102038.69;5077956;27;45851;-54
2023/06/27 07:27:33;;;;;;;;;0.00;0.00;;;;;37.32;23.64;102020.94;5074927;28;45543;-53
2023/06/27 07:29:58;;;;;;;;;0.00;0.00;;;;;38.08;23.54;102028.31;5092326;27;49783;-54
2023/06/27 07:32:23;;;;;;;;;0.00;0.00;;;;;38.87;23.86;102031.13;5078238;27;66345;-54
2023/06/27 07:34:49;;;;;;;;;0.00;0.00;;;;;39.52;23.11;102029.41;5078066;28;45743;-55
2023/06/27 07:37:14;;;;;;;;;0.00;0.00;;;;;40.01;22.22;102031.91;5076992;27;45489;-54
2023/06/27 07:39:39;;;;;;;;;0.00;0.00;;;;;40.37;21.19;102031.84;5073115;28;46112;-54
2023/06/27 07:42:05;;;;;;;;;0.00;0.00;;;;;40.65;20.96;102034.66;5077467;27;63827;-56
2023/06/27 07:44:30;;;;;;;;;0.00;0.00;;;;;41.22;20.49;102037.59;5078155;28;45736;-56
2023/06/27 07:46:56;;;;;;;;;0.00;0.00;;;;;41.72;20.35;102030.28;5071134;27;51891;-56
2023/06/27 07:49:21;;;;;;;;;0.00;0.00;;;;;42.05;19.73;102031.28;5074727;27;59215;-56
2023/06/27 07:51:51;;;;;;;;;0.00;0.00;;;;;42.38;19.16;102023.88;5078881;27;45444;-56
2023/06/27 07:54:16;;;;;;;;;0.00;0.00;;;;;42.59;18.51;102028.56;5079156;27;45820;-56
2023/06/27 07:56:41;;;;;;;;;0.00;0.00;;;;;42.55;19.76;102026.59;5076381;27;45840;-56
2023/06/27 07:59:08;;;;;;;;;0.00;0.00;;;;;42.33;18.89;102029.41;5071556;28;45502;-56
2023/06/27 08:01:34;;;;;;;;;0.00;0.00;;;;;42.53;18.56;102028.78;5071205;27;45752;-56
2023/06/27 08:03:59;;;;;;;;;0.00;0.00;;;;;42.87;19.08;102031.38;5072403;28;45850;-56
2023/06/27 08:06:24;;;;;;;;;0.00;0.00;;;;;43.17;18.19;102024.38;5070560;27;59983;-56
2023/06/27 08:08:50;;;;;;;;;0.00;0.00;;;;;43.43;18.01;102026.25;5071773;28;71920;-55
2023/06/27 08:11:15;;;;;;;;;0.00;0.00;;;;;43.75;16.65;102024.50;5077211;28;68210;-56
2023/06/27 08:13:43;;;;;;;;;0.00;0.00;;;;;44.23;17.50;102019.66;5063707;27;45319;-56
2023/06/27 08:16:09;;;;;;;;;0.00;0.00;;;;;44.91;16.72;102020.66;5074910;28;45716;-56
2023/06/27 08:18:34;;;;;;;;;0.00;0.00;;;;;45.56;16.52;102018.06;5078173;27;46255;-56
2023/06/27 08:21:00;;;;;;;;;0.00;0.00;;;;;46.00;15.90;102012.84;5073747;27;51313;-56
2023/06/27 08:23:26;;;;;;;;;0.00;0.00;;;;;46.50;15.92;102013.69;5091618;27;45441;-57
2023/06/27 08:25:52;;;;;;;;;0.00;0.00;;;;;47.01;15.43;102014.44;5072406;28;45537;-56
2023/06/27 08:28:17;;;;;;;;;0.00;0.00;;;;;47.42;14.78;102016.91;5076510;27;62838;-56
2023/06/27 08:30:42;;;;;;;;;0.00;0.00;;;;;47.42;13.90;102018.81;5077714;27;45441;-57
2023/06/27 08:33:08;;;;;;;;;0.00;0.00;;;;;47.13;14.15;102014.91;5077762;27;45464;-57
2023/06/27 08:35:34;;;;;;;;;0.00;0.00;;;;;46.81;13.36;102016.31;5076377;27;45364;-56
2023/06/27 08:37:59;;;;;;;;;0.00;0.00;;;;;46.88;13.40;102004.72;5075715;27;46835;-57
2023/06/27 08:40:25;;;;;;;;;0.00;0.00;;;;;47.20;13.99;102008.94;5074769;27;45842;-57
2023/06/27 08:42:51;;;;;;;;;0.00;0.00;;;;;47.66;13.23;102005.59;5082954;27;45491;-57
2023/06/27 08:45:16;;;;;;;;;0.00;0.00;;;;;47.75;13.45;102002.97;5075440;27;45459;-57
2023/06/27 08:47:43;;;;;;;;;0.00;0.00;;;;;47.94;13.25;101999.34;5043569;27;47448;-57
2023/06/27 08:50:14;;;;;;;;;0.00;0.00;;;;;48.28;13.19;102001.16;5014582;27;46112;-57
2023/06/27 08:52:44;;;;;;;;;0.00;0.00;;;;;48.22;12.88;102000.41;5025378;27;45573;-57
2023/06/27 08:55:20;;;;;;;;;0.00;0.00;;;;;48.04;12.99;101999.22;5011034;27;45632;-57
2023/06/27 08:57:46;;;;;;;;;0.00;0.00;;;;;48.16;12.69;101984.66;5024528;27;45942;-57
2023/06/27 09:00:13;;;;;;;;;0.00;0.00;;;;;47.97;12.42;101990.31;5082257;27;65500;-57
2023/06/27 09:02:40;;;;;;;;;0.00;0.00;;;;;48.13;12.93;101982.47;5078497;27;45520;-57
2023/06/27 09:05:07;;;;;;;;;0.00;0.00;;;;;48.11;13.44;101979.97;5077481;27;45473;-57
2023/06/27 09:07:33;;;;;;;;;0.00;0.00;;;;;48.34;13.01;101989.47;5089152;27;46504;-57
2023/06/27 09:09:59;;;;;;;;;0.00;0.00;;;;;48.34;12.14;101983.84;5079567;27;45513;-57
2023/06/27 09:12:26;;;;;;;;;0.00;0.00;;;;;47.66;12.50;101982.25;5074953;28;45532;-57
2023/06/27 09:14:51;;;;;;;;;0.00;0.00;;;;;46.98;13.05;101982.09;5078633;27;45741;-57
2023/06/27 09:17:17;;;;;;;;;0.00;0.00;;;;;46.29;13.10;101975.63;5078846;27;46251;-59
2023/06/27 09:19:42;;;;;;;;;0.00;0.00;;;;;45.59;14.19;101971.72;5081573;27;45541;-57
2023/06/27 09:22:08;;;;;;;;;0.00;0.00;;;;;44.58;14.09;101970.41;5062947;27;46331;-57
2023/06/27 09:24:40;;;;;;;;;0.00;0.00;;;;;43.99;14.24;101965.22;5079026;28;45581;-57
2023/06/27 09:27:05;;;;;;;;;0.00;0.00;;;;;43.74;14.81;101955.59;5073229;27;45346;-57
2023/06/27 09:29:34;;;;;;;;;0.00;0.00;;;;;43.42;14.47;101946.19;5079230;27;45824;-57
2023/06/27 09:32:09;;;;;;;;;0.00;0.00;;;;;43.24;14.57;101952.25;5067754;27;45691;-57
2023/06/27 09:34:37;;;;;;;;;0.00;0.00;;;;;43.15;14.50;101948.28;5092991;27;45386;-57
2023/06/27 09:37:03;;;;;;;;;0.00;0.00;;;;;42.76;14.71;101946.56;5073087;27;45437;-57
2023/06/27 09:39:28;;;;;;;;;0.00;0.00;;;;;42.19;14.99;101945.13;5069881;28;45479;-57
2023/06/27 09:41:54;;;;;;;;;0.00;0.00;;;;;41.82;15.23;101947.50;5075087;27;46372;-57
2023/06/27 09:44:21;;;;;;;;;0.00;0.00;;;;;42.03;15.66;101944.97;5077483;27;45534;-57
2023/06/27 09:46:48;;;;;;;;;0.00;0.00;;;;;42.50;15.52;101945.47;5078713;28;48328;-58
2023/06/27 09:49:15;;;;;;;;;0.00;0.00;;;;;42.21;14.59;101932.59;5077155;27;45408;-57
2023/06/27 09:51:40;;;;;;;;;0.00;0.00;;;;;41.62;14.93;101936.09;5074986;27;45398;-57
2023/06/27 09:54:06;;;;;;;;;0.00;0.00;;;;;41.74;15.28;101939.56;5074999;28;45485;-57
2023/06/27 09:56:33;;;;;;;;;0.00;0.00;;;;;42.24;15.13;101937.69;5080322;27;46030;-57
2023/06/27 09:59:11;;;;;;;;;0.00;0.00;;;;;42.88;14.97;101921.19;5078209;27;45718;-57
2023/06/27 10:01:37;;;;;;;;;0.00;0.00;;;;;43.35;15.01;101922.34;5075539;28;45548;-57
2023/06/27 10:04:04;;;;;;;;;0.00;0.00;;;;;43.52;14.64;101928.66;5079287;28;45379;-57
2023/06/27 10:06:30;;;;;;;;;0.00;0.00;;;;;42.99;14.14;101928.56;5092950;27;45738;-57
2023/06/27 10:08:56;;;;;;;;;0.00;0.00;;;;;42.53;14.64;101930.94;5087918;27;45479;-57
2023/06/27 10:11:22;;;;;;;;;0.00;0.00;;;;;42.44;15.00;101936.22;5079562;27;45357;-58
2023/06/27 10:13:48;;;;;;;;;0.00;0.00;;;;;42.58;14.71;101925.41;5080312;27;45375;-58
2023/06/27 10:16:14;;;;;;;;;0.00;0.00;;;;;42.88;13.78;101919.25;5077806;27;45633;-58
2023/06/27 10:18:39;;;;;;;;;0.00;0.00;;;;;43.20;13.70;101918.38;5072164;27;70082;-57
2023/06/27 10:21:05;;;;;;;;;0.00;0.00;;;;;43.38;13.95;101917.06;5079965;27;46109;-57
2023/06/27 10:23:31;;;;;;;;;0.00;0.00;;;;;43.39;14.76;101915.09;5074907;27;45724;-57
2023/06/27 10:25:57;;;;;;;;;0.00;0.00;;;;;42.73;14.26;101914.38;5075834;28;45394;-57
2023/06/27 10:28:23;;;;;;;;;0.00;0.00;;;;;41.64;14.68;101923.56;5075107;27;45478;-55
2023/06/27 10:30:48;;;;;;;;;0.00;0.00;;;;;40.74;15.65;101918.00;5074321;28;45521;-58
2023/06/27 10:33:22;;;;;;;;;0.00;0.00;;;;;40.29;15.75;101918.88;5078939;27;45640;-58
2023/06/27 10:35:54;;;;;;;;;0.00;0.00;;;;;40.82;16.30;101911.16;5069173;28;46503;-58
2023/06/27 10:38:19;;;;;;;;;0.00;0.00;;;;;41.26;15.34;101916.84;5068145;28;45361;-58
2023/06/27 10:40:58;;;;;;;;;0.00;0.00;;;;;41.45;15.91;101922.19;5076634;27;45268;-58
2023/06/27 10:43:48;;;;;;;;;0.00;0.00;;;;;40.62;15.50;101926.44;5079339;27;45421;-57
2023/06/27 10:46:19;;;;;;;;;0.00;0.00;;;;;40.27;16.21;101929.41;5076279;28;47219;-58
2023/06/27 10:48:48;;;;;;;;;0.00;0.00;;;;;40.50;15.80;101923.69;5079518;27;45497;-57
2023/06/27 10:51:22;;;;;;;;;0.00;0.00;;;;;40.73;15.56;101916.31;5080031;27;45391;-57
2023/06/27 10:54:11;;;;;;;;;0.00;0.00;;;;;40.92;15.11;101922.47;5080420;27;45592;-58
2023/06/27 10:56:47;;;;;;;;;0.00;0.00;;;;;40.11;15.69;101925.50;5079711;28;45563;-57
2023/06/27 10:59:18;;;;;;;;;0.00;0.00;;;;;39.15;16.37;101923.91;5078398;28;45424;-57
2023/06/27 11:01:59;;;;;;;;;0.00;0.00;;;;;38.25;16.70;101925.78;5080123;27;45413;-57
2023/06/27 11:04:26;;;;;;;;;0.00;0.00;;;;;37.89;17.41;101931.19;5079595;27;45450;-57
2023/06/27 11:07:00;;;;;;;;;0.00;0.00;;;;;38.27;17.33;101920.88;5079446;27;46136;-57
2023/06/27 11:09:28;;;;;;;;;0.00;0.00;;;;;38.40;17.32;101923.44;5065835;28;45432;-57
2023/06/27 11:12:11;;;;;;;;;0.00;0.00;;;;;38.16;17.46;101916.91;5077971;28;45379;-57
2023/06/27 11:14:42;;;;;;;;;0.00;0.00;;;;;37.64;17.44;101917.34;5079446;27;45977;-57
2023/06/27 11:17:08;;;;;;;;;0.00;0.00;;;;;37.15;17.55;101908.91;5078644;27;46337;-57
2023/06/27 11:19:34;;;;;;;;;0.00;0.00;;;;;37.39;17.71;101910.81;5079682;27;45382;-56
2023/06/27 11:22:01;;;;;;;;;0.00;0.00;;;;;37.46;17.22;101912.63;5078680;27;45375;-57